Archival Weather

Chicago O'Hare International

Chicago, Illinois (KORD)

Report from: Sunday, March 19, 2023 3:51 AM CDT
Current time: Friday, June 21, 2024 8:00 PM CDT

Current weather – Weather history – Daily summaries
Weather forecast

Temperature-6.1°C (21.0°F)
Wind chill-11.9°C (10.6°F)
Dew point-12.8°C (9.0°F)
Winds 8 kts (4.1 m/s, 9.2 mph) West (280°)
Visibility10 mi. (16.1 km)
Clouds Sky clear
Altimeter30.22 in.Hg (1023 mB)
Relative humidity59 %
Density altitude-2,949 ft. (-899 m)
Sea-level pressure102.4 kPa (1024 mB, 30.24 in.Hg)
Remarks System requires maintenance
Automated weather observing station with precipitation discriminator
Pressure rising, then falling
Flight conditions Visual Meteorological Conditions
Raw dataKORD 190851Z 28008KT 10SM CLR M06/M13 A3022 RMK AO2 SLP242 T10611128 50005 $
An error has occurred. This application may no longer respond until reloaded. Reload 🗙